createdAt,value
2022-12-03T00:00:45.130Z,98172.50
2022-12-03T00:02:48.175Z,98179.19
2022-12-03T00:04:51.776Z,98181.78
2022-12-03T00:06:54.881Z,98173.25
2022-12-03T00:08:59.237Z,98180.09
2022-12-03T00:11:02.217Z,98179.06
2022-12-03T00:13:05.261Z,98173.09
2022-12-03T00:15:09.730Z,98178.34
2022-12-03T00:17:12.720Z,98174.03
2022-12-03T00:19:16.281Z,98175.06
2022-12-03T00:21:19.198Z,98180.31
2022-12-03T00:23:22.134Z,98172.56
2022-12-03T00:25:26.481Z,98177.78
2022-12-03T00:27:29.563Z,98175.28
2022-12-03T00:29:32.598Z,98185.75
2022-12-03T00:31:36.100Z,98177.94
2022-12-03T00:33:39.285Z,98182.28
2022-12-03T00:35:42.621Z,98180.44
2022-12-03T00:37:45.725Z,98181.56
2022-12-03T00:39:48.671Z,98176.56
2022-12-03T00:41:53.072Z,98175.50
2022-12-03T00:43:57.616Z,98175.50
2022-12-03T00:46:00.773Z,98190.16
2022-12-03T00:48:03.735Z,98176.38
2022-12-03T00:50:08.154Z,98185.69
2022-12-03T00:52:11.172Z,98191.63
2022-12-03T00:54:14.282Z,98190.84
2022-12-03T00:56:17.296Z,98189.81
2022-12-03T00:58:21.703Z,98192.34
2022-12-03T01:00:25.376Z,98191.34
2022-12-03T01:02:28.451Z,98185.47
2022-12-03T01:04:32.705Z,98198.25
2022-12-03T01:06:35.718Z,98195.34
2022-12-03T01:08:38.751Z,98192.47
2022-12-03T01:10:41.676Z,98196.75
2022-12-03T01:12:44.877Z,98194.97
2022-12-03T01:14:49.244Z,98201.69
2022-12-03T01:16:52.334Z,98202.38
2022-12-03T01:18:55.409Z,98199.03
2022-12-03T01:20:58.341Z,98200.63
2022-12-03T01:23:01.346Z,98195.94
2022-12-03T01:25:04.945Z,98194.97
2022-12-03T01:27:07.939Z,98199.19
2022-12-03T01:29:11.026Z,98196.75
2022-12-03T01:31:33.067Z,98200.91
2022-12-03T01:33:36.553Z,98208.66
2022-12-03T01:35:39.502Z,98205.47
2022-12-03T01:37:42.463Z,98206.16
2022-12-03T01:39:45.498Z,98202.44
2022-12-03T01:41:49.373Z,98198.91
2022-12-03T01:43:53.215Z,98191.97
2022-12-03T01:45:57.415Z,98197.13
2022-12-03T01:48:01.846Z,98195.38
2022-12-03T01:50:07.555Z,98185.97
2022-12-03T01:52:13.099Z,98203.75
2022-12-03T01:54:18.346Z,98197.00
2022-12-03T01:56:21.352Z,98198.66
2022-12-03T01:58:28.438Z,98188.03
2022-12-03T02:00:32.009Z,98197.00
2022-12-03T02:02:35.124Z,98199.03
2022-12-03T02:04:39.536Z,98194.69
2022-12-03T02:06:43.127Z,98199.88
2022-12-03T02:08:46.647Z,98195.66
2022-12-03T02:10:49.680Z,98200.69
2022-12-03T02:12:55.766Z,98187.84
2022-12-03T02:14:58.803Z,98203.41
2022-12-03T02:17:09.307Z,98194.91
2022-12-03T02:19:19.580Z,98195.81
2022-12-03T02:21:29.110Z,98199.31
2022-12-03T02:23:36.589Z,98200.84
2022-12-03T02:25:41.036Z,98196.47
2022-12-03T02:27:44.466Z,98193.88
2022-12-03T02:29:47.442Z,98195.94
2022-12-03T02:31:50.444Z,98195.94
2022-12-03T02:33:54.420Z,98194.00
2022-12-03T02:36:03.139Z,98192.25
2022-12-03T02:38:13.986Z,98195.59
2022-12-03T02:40:19.906Z,98197.22
2022-12-03T02:42:35.267Z,98191.13
2022-12-03T02:44:38.916Z,98183.38
2022-12-03T02:46:42.057Z,98188.63
2022-12-03T02:48:45.091Z,98186.13
2022-12-03T02:50:51.555Z,98182.59
2022-12-03T02:52:55.752Z,98187.63
2022-12-03T02:54:59.006Z,98177.44
2022-12-03T02:57:02.231Z,98187.91
2022-12-03T02:59:06.958Z,98191.56
2022-12-03T03:01:10.591Z,98194.00
2022-12-03T03:03:13.741Z,98193.94
2022-12-03T03:05:17.303Z,98199.03
2022-12-03T03:07:20.252Z,98198.19
2022-12-03T03:09:23.397Z,98198.03
2022-12-03T03:11:26.330Z,98192.19
2022-12-03T03:13:30.735Z,98198.19
2022-12-03T03:15:36.820Z,98198.09
2022-12-03T03:17:40.319Z,98198.91
2022-12-03T03:19:44.733Z,98205.59
2022-12-03T03:21:47.693Z,98203.91
2022-12-03T03:23:50.644Z,98202.25
2022-12-03T03:25:58.496Z,98202.25
2022-12-03T03:28:02.077Z,98199.59
2022-12-03T03:30:05.798Z,98204.75
2022-12-03T03:32:10.073Z,98195.38
2022-12-03T03:34:13.832Z,98188.78
2022-12-03T03:36:17.432Z,98189.53
2022-12-03T03:38:21.224Z,98193.09
2022-12-03T03:40:24.248Z,98192.19
2022-12-03T03:42:27.554Z,98188.69
2022-12-03T03:44:30.676Z,98185.03
2022-12-03T03:46:34.341Z,98176.31
2022-12-03T03:48:39.124Z,98180.47
2022-12-03T03:50:42.947Z,98183.22
2022-12-03T03:52:46.500Z,98186.59
2022-12-03T03:54:49.483Z,98183.22
2022-12-03T03:56:52.656Z,98188.56
2022-12-03T03:58:56.345Z,98192.59
2022-12-03T04:00:59.375Z,98184.13
2022-12-03T04:03:02.399Z,98180.09
2022-12-03T04:05:07.715Z,98177.44
2022-12-03T04:07:10.647Z,98176.53
2022-12-03T04:09:13.605Z,98170.53
2022-12-03T04:11:33.954Z,98177.28
2022-12-03T04:13:36.932Z,98166.72
2022-12-03T04:15:40.118Z,98166.50
2022-12-03T04:17:43.285Z,98168.03
2022-12-03T04:19:46.321Z,98169.91
2022-12-03T04:22:07.098Z,98168.94
2022-12-03T04:24:11.448Z,98171.59
2022-12-03T04:26:32.131Z,98163.91
2022-12-03T04:28:49.181Z,98169.09
2022-12-03T04:30:52.161Z,98168.63
2022-12-03T04:33:13.098Z,98165.28
2022-12-03T04:35:33.865Z,98161.00
2022-12-03T04:37:38.260Z,98157.66
2022-12-03T04:39:41.176Z,98159.31
2022-12-03T04:41:44.259Z,98157.97
2022-12-03T04:44:01.146Z,98157.16
2022-12-03T04:46:04.165Z,98159.59
2022-12-03T04:48:07.342Z,98161.31
2022-12-03T04:50:11.358Z,98160.41
2022-12-03T04:52:15.551Z,98160.41
2022-12-03T04:54:20.068Z,98167.88
2022-12-03T04:56:23.037Z,98164.44
2022-12-03T04:58:25.954Z,98165.28
2022-12-03T05:00:29.785Z,98163.44
2022-12-03T05:02:32.824Z,98163.44
2022-12-03T05:04:35.971Z,98163.25
2022-12-03T05:06:39.152Z,98166.50
2022-12-03T05:08:42.738Z,98161.19
2022-12-03T05:10:47.123Z,98162.81
2022-12-03T05:12:50.111Z,98155.94
2022-12-03T05:14:53.279Z,98158.38
2022-12-03T05:16:56.653Z,98160.91
2022-12-03T05:18:59.719Z,98160.16
2022-12-03T05:21:01.821Z,98164.75
2022-12-03T05:23:04.876Z,98159.72
2022-12-03T05:25:08.516Z,98158.75
2022-12-03T05:27:12.881Z,98157.69
2022-12-03T05:29:15.797Z,98159.34
2022-12-03T05:31:18.870Z,98168.81
2022-12-03T05:33:21.911Z,98165.09
2022-12-03T05:35:25.037Z,98160.69
2022-12-03T05:37:28.236Z,98165.25
2022-12-03T05:39:31.259Z,98154.19
2022-12-03T05:41:51.869Z,98151.97
2022-12-03T05:43:56.324Z,98151.81
2022-12-03T05:45:59.373Z,98151.88
2022-12-03T05:48:03.031Z,98147.50
2022-12-03T05:50:07.320Z,98149.94
2022-12-03T05:52:10.304Z,98154.34
2022-12-03T05:54:13.299Z,98148.41
2022-12-03T05:56:16.381Z,98135.63
2022-12-03T05:58:19.375Z,98139.09
2022-12-03T06:00:25.461Z,98131.66
2022-12-03T06:02:28.613Z,98131.25
2022-12-03T06:04:31.734Z,98131.38
2022-12-03T06:06:34.708Z,98119.09
2022-12-03T06:08:37.724Z,98114.00
2022-12-03T06:10:43.140Z,98113.19
2022-12-03T06:12:46.124Z,98126.53
2022-12-03T06:14:49.150Z,98133.38
2022-12-03T06:16:54.555Z,98144.63
2022-12-03T06:18:57.889Z,98146.38
2022-12-03T06:21:00.840Z,98143.94
2022-12-03T06:23:03.834Z,98142.16
2022-12-03T06:25:07.460Z,98146.59
2022-12-03T06:27:10.588Z,98145.44
2022-12-03T06:29:13.690Z,98138.63
2022-12-03T06:31:16.685Z,98154.41
2022-12-03T06:33:21.111Z,98158.03
2022-12-03T06:35:24.115Z,98150.06
2022-12-03T06:37:27.132Z,98157.69
2022-12-03T06:39:30.203Z,98155.91
2022-12-03T06:41:33.243Z,98155.91
2022-12-03T06:43:36.228Z,98160.19
2022-12-03T06:45:42.116Z,98162.78
2022-12-03T06:47:49.199Z,98159.16
2022-12-03T06:49:53.532Z,98172.63
2022-12-03T06:51:56.956Z,98172.63
2022-12-03T06:54:00.223Z,98168.16
2022-12-03T06:56:03.228Z,98175.63
2022-12-03T06:58:06.349Z,98183.31
2022-12-03T07:00:12.185Z,98184.78
2022-12-03T07:02:15.143Z,98182.97
2022-12-03T07:04:18.163Z,98181.13
2022-12-03T07:06:22.464Z,98180.09
2022-12-03T07:08:25.490Z,98184.22
2022-12-03T07:10:28.595Z,98191.91
2022-12-03T07:12:32.710Z,98188.19
2022-12-03T07:14:35.698Z,98184.63
2022-12-03T07:16:39.432Z,98192.41
2022-12-03T07:18:42.487Z,98189.94
2022-12-03T07:20:45.664Z,98189.94
2022-12-03T07:22:50.046Z,98196.81
2022-12-03T07:24:53.378Z,98193.28
2022-12-03T07:26:56.654Z,98187.28
2022-12-03T07:29:02.090Z,98180.44
2022-12-03T07:31:05.547Z,98169.94
2022-12-03T07:33:08.640Z,98168.16
2022-12-03T07:35:12.718Z,98169.06
2022-12-03T07:37:22.642Z,98153.06
2022-12-03T07:39:27.807Z,98164.31
2022-12-03T07:41:30.813Z,98164.25
2022-12-03T07:43:33.944Z,98153.22
2022-12-03T07:45:36.971Z,98151.25
2022-12-03T07:47:55.464Z,98149.56
2022-12-03T07:49:58.444Z,98152.94
2022-12-03T07:52:01.491Z,98150.34
2022-12-03T07:54:04.799Z,98146.22
2022-12-03T07:56:09.695Z,98151.16
2022-12-03T07:58:12.733Z,98147.69
2022-12-03T08:00:16.802Z,98153.06
2022-12-03T08:02:21.888Z,98153.00
2022-12-03T08:04:25.089Z,98163.28
2022-12-03T08:06:28.137Z,98159.69
2022-12-03T08:08:31.155Z,98166.53
2022-12-03T08:10:34.123Z,98170.97
2022-12-03T08:12:42.646Z,98167.66
2022-12-03T08:14:45.795Z,98166.00
2022-12-03T08:16:49.374Z,98171.09
2022-12-03T08:18:52.721Z,98164.09
2022-12-03T08:20:55.925Z,98168.44
2022-12-03T08:22:59.082Z,98168.28
2022-12-03T08:25:02.155Z,98173.63
2022-12-03T08:27:07.299Z,98175.25
2022-12-03T08:29:12.717Z,98168.22
2022-12-03T08:31:20.914Z,98168.97
2022-12-03T08:33:28.304Z,98162.06
2022-12-03T08:35:32.080Z,98161.09
2022-12-03T08:37:37.017Z,98169.66
2022-12-03T08:39:44.552Z,98167.75
2022-12-03T08:42:12.203Z,98169.53
2022-12-03T08:44:25.282Z,98174.69
2022-12-03T08:46:28.396Z,98175.44
2022-12-03T08:48:36.866Z,98180.47
2022-12-03T08:50:41.813Z,98171.81
2022-12-03T08:52:44.823Z,98179.44
2022-12-03T08:54:52.512Z,98177.22
2022-12-03T08:56:55.926Z,98174.63
2022-12-03T08:59:00.575Z,98174.56
2022-12-03T09:01:19.004Z,98181.41
2022-12-03T09:03:22.142Z,98168.84
2022-12-03T09:05:28.717Z,98173.63
2022-12-03T09:07:31.755Z,98172.41
2022-12-03T09:09:34.969Z,98172.50
2022-12-03T09:11:38.209Z,98172.56
2022-12-03T09:13:41.261Z,98170.78
2022-12-03T09:15:44.224Z,98181.94
2022-12-03T09:17:48.914Z,98183.59
2022-12-03T09:19:51.938Z,98175.81
2022-12-03T09:21:55.449Z,98181.66
2022-12-03T09:23:58.503Z,98184.31
2022-12-03T09:26:01.520Z,98177.59
2022-12-03T09:28:04.642Z,98179.56
2022-12-03T09:30:08.948Z,98173.72
2022-12-03T09:32:17.935Z,98176.25
2022-12-03T09:34:22.856Z,98175.41
2022-12-03T09:36:25.854Z,98171.94
2022-12-03T09:38:28.824Z,98170.94
2022-12-03T09:40:31.853Z,98163.97
2022-12-03T09:42:35.142Z,98153.44
2022-12-03T09:44:39.154Z,98156.22
2022-12-03T09:46:43.007Z,98151.19
2022-12-03T09:48:46.492Z,98158.94
2022-12-03T09:50:51.157Z,98154.06
2022-12-03T09:52:55.862Z,98143.03
2022-12-03T09:55:00.346Z,98141.22
2022-12-03T09:57:05.242Z,98141.97
2022-12-03T09:59:13.994Z,98141.47
2022-12-03T10:01:17.462Z,98134.69
2022-12-03T10:03:29.497Z,98136.53
2022-12-03T10:05:34.328Z,98142.53
2022-12-03T10:07:39.138Z,98142.09
2022-12-03T10:09:42.133Z,98140.56
2022-12-03T10:11:45.268Z,98142.31
2022-12-03T10:13:48.682Z,98143.28
2022-12-03T10:15:52.938Z,98136.38
2022-12-03T10:17:56.746Z,98136.38
2022-12-03T10:19:59.845Z,98137.84
2022-12-03T10:22:03.111Z,98145.25
2022-12-03T10:24:25.469Z,98147.75
2022-12-03T10:26:39.667Z,98150.19
2022-12-03T10:28:44.145Z,98152.94
2022-12-03T10:30:54.605Z,98148.81
2022-12-03T10:32:59.072Z,98133.66
2022-12-03T10:35:09.991Z,98141.34
2022-12-03T10:37:16.035Z,98138.91
2022-12-03T10:39:20.594Z,98144.00
2022-12-03T10:41:26.490Z,98134.09
2022-12-03T10:43:29.454Z,98133.22
2022-12-03T10:45:35.239Z,98131.44
2022-12-03T10:47:38.383Z,98131.56
2022-12-03T10:49:42.015Z,98130.00
2022-12-03T10:51:46.082Z,98118.66
2022-12-03T10:53:50.606Z,98123.03
2022-12-03T10:55:59.440Z,98118.66
2022-12-03T10:58:02.572Z,98113.34
2022-12-03T11:00:07.287Z,98113.97
2022-12-03T11:02:15.589Z,98107.69
2022-12-03T11:04:23.786Z,98101.53
2022-12-03T11:06:26.823Z,98094.38
2022-12-03T11:08:32.590Z,98090.78
2022-12-03T11:10:35.645Z,98096.59
2022-12-03T11:12:39.993Z,98076.81
2022-12-03T11:15:09.845Z,98086.47
2022-12-03T11:17:12.978Z,98084.78
2022-12-03T11:19:17.366Z,98082.00
2022-12-03T11:21:20.490Z,98077.81
2022-12-03T11:23:56.617Z,98076.41
2022-12-03T11:25:59.869Z,98072.78
2022-12-03T11:28:36.143Z,98075.22
2022-12-03T11:31:01.469Z,98074.31
2022-12-03T11:33:04.646Z,98064.06
2022-12-03T11:35:12.765Z,98073.31
2022-12-03T11:37:28.877Z,98068.81
2022-12-03T11:40:03.604Z,98067.81
2022-12-03T11:42:30.092Z,98065.94
2022-12-03T11:44:33.855Z,98065.94
2022-12-03T11:46:43.602Z,98068.59
2022-12-03T11:48:47.202Z,98063.28
2022-12-03T11:50:52.783Z,98065.72
2022-12-03T11:52:56.986Z,98068.03
2022-12-03T11:55:04.349Z,98066.47
2022-12-03T11:57:27.338Z,98057.84
2022-12-03T11:59:30.407Z,98059.47
2022-12-03T12:01:38.598Z,98063.53
2022-12-03T12:03:46.837Z,98055.56
2022-12-03T12:06:01.650Z,98048.88
2022-12-03T12:08:04.970Z,98051.66
2022-12-03T12:10:08.771Z,98051.94
2022-12-03T12:12:26.760Z,98041.84
2022-12-03T12:14:29.824Z,98033.25
2022-12-03T12:16:51.319Z,98031.66
2022-12-03T12:18:56.399Z,98029.34
2022-12-03T12:21:32.870Z,98026.91
2022-12-03T12:23:35.842Z,98024.59
2022-12-03T12:25:41.382Z,98021.19
2022-12-03T12:27:47.236Z,98018.69
2022-12-03T12:29:55.389Z,98023.25
2022-12-03T12:32:01.189Z,98013.06
2022-12-03T12:34:12.720Z,98012.91
2022-12-03T12:36:15.761Z,98012.63
2022-12-03T12:38:20.647Z,98007.09
2022-12-03T12:40:26.823Z,98006.81
2022-12-03T12:42:34.494Z,98015.38
2022-12-03T12:44:37.483Z,98007.56
2022-12-03T12:46:47.622Z,98012.59
2022-12-03T12:48:53.331Z,98005.53
2022-12-03T12:51:11.040Z,98013.69
2022-12-03T12:53:19.666Z,98008.81
2022-12-03T12:55:24.193Z,98010.13
2022-12-03T12:57:27.190Z,98000.59
2022-12-03T12:59:30.147Z,97997.94
2022-12-03T13:01:35.486Z,97998.03
2022-12-03T13:03:42.945Z,97995.38
2022-12-03T13:05:47.511Z,98005.03
2022-12-03T13:07:53.950Z,97993.00
2022-12-03T13:09:57.106Z,97989.53
2022-12-03T13:12:01.351Z,97988.72
2022-12-03T13:14:08.394Z,97992.31
2022-12-03T13:16:14.460Z,97992.19
2022-12-03T13:18:42.160Z,97978.13
2022-12-03T13:20:45.268Z,97974.50
2022-12-03T13:22:48.407Z,97974.50
2022-12-03T13:24:53.997Z,97964.53
2022-12-03T13:26:59.371Z,97960.97
2022-12-03T13:29:04.432Z,97975.25
2022-12-03T13:31:22.624Z,97973.44
2022-12-03T13:33:27.292Z,97969.41
2022-12-03T13:35:35.099Z,97977.66
2022-12-03T13:37:38.791Z,97975.28
2022-12-03T13:39:48.846Z,97981.91
2022-12-03T13:42:11.050Z,97969.97
2022-12-03T13:44:17.593Z,97964.66
2022-12-03T13:46:20.742Z,97969.69
2022-12-03T13:48:25.077Z,97964.06
2022-12-03T13:50:33.750Z,97976.91
2022-12-03T13:52:36.713Z,97967.00
2022-12-03T13:54:40.209Z,97970.63
2022-12-03T13:56:43.280Z,97977.59
2022-12-03T13:58:47.672Z,97978.44
2022-12-03T14:00:51.003Z,97977.75
2022-12-03T14:02:54.259Z,97968.41
2022-12-03T14:05:00.421Z,97974.28
2022-12-03T14:07:03.972Z,97967.34
2022-12-03T14:09:07.129Z,97979.28
2022-12-03T14:11:30.508Z,97979.56
2022-12-03T14:13:33.601Z,97971.97
2022-12-03T14:15:38.109Z,97970.16
2022-12-03T14:17:41.203Z,97971.19
2022-12-03T14:19:44.245Z,97963.66
2022-12-03T14:21:47.460Z,97966.50
2022-12-03T14:23:50.468Z,97970.22
2022-12-03T14:25:55.285Z,97977.34
2022-12-03T14:27:58.400Z,97978.88
2022-12-03T14:30:01.477Z,97975.41
2022-12-03T14:32:05.995Z,97982.66
2022-12-03T14:34:09.059Z,97974.72
2022-12-03T14:36:12.042Z,97972.19
2022-12-03T14:38:15.106Z,97981.59
2022-12-03T14:40:21.732Z,97986.25
2022-12-03T14:42:24.264Z,97982.00
2022-12-03T14:44:28.087Z,97978.53
2022-12-03T14:46:32.067Z,97981.25
2022-12-03T14:48:36.434Z,97976.91
2022-12-03T14:50:39.417Z,97980.47
2022-12-03T14:52:43.291Z,97989.13
2022-12-03T14:54:46.401Z,97993.38
2022-12-03T14:56:49.468Z,97991.97
2022-12-03T14:58:52.530Z,97989.38
2022-12-03T15:00:55.572Z,97990.28
2022-12-03T15:02:58.688Z,98004.88
2022-12-03T15:05:03.454Z,97996.56
2022-12-03T15:07:06.624Z,97998.81
2022-12-03T15:09:09.633Z,97992.88
2022-12-03T15:11:12.554Z,97996.09
2022-12-03T15:13:15.626Z,97997.00
2022-12-03T15:15:18.700Z,97990.28
2022-12-03T15:17:30.930Z,97988.75
2022-12-03T15:19:34.901Z,97988.09
2022-12-03T15:21:39.263Z,97995.91
2022-12-03T15:23:42.590Z,97988.47
2022-12-03T15:25:45.778Z,97997.03
2022-12-03T15:27:48.879Z,97991.88
2022-12-03T15:29:52.239Z,97997.81
2022-12-03T15:31:55.738Z,97995.22
2022-12-03T15:33:58.802Z,97997.59
2022-12-03T15:36:01.930Z,97993.28
2022-12-03T15:38:06.341Z,97989.16
2022-12-03T15:40:10.856Z,97986.84
2022-12-03T15:42:14.665Z,97987.88
2022-12-03T15:44:17.730Z,97969.91
2022-12-03T15:46:20.930Z,97974.94
2022-12-03T15:48:23.956Z,97980.94
2022-12-03T15:50:27.009Z,97976.59
2022-12-03T15:52:30.149Z,97974.09
2022-12-03T15:54:34.733Z,97973.47
2022-12-03T15:56:37.880Z,97982.84
2022-12-03T15:58:41.636Z,97981.22
2022-12-03T16:00:44.637Z,97986.63
2022-12-03T16:02:52.738Z,97985.69
2022-12-03T16:04:56.258Z,97987.25
2022-12-03T16:06:59.249Z,97987.25
2022-12-03T16:09:02.259Z,97978.91
2022-12-03T16:11:07.147Z,97977.91
2022-12-03T16:13:10.078Z,97989.84
2022-12-03T16:15:13.081Z,97978.81
2022-12-03T16:17:16.118Z,97978.75
2022-12-03T16:19:19.262Z,97994.03
2022-12-03T16:21:26.748Z,97968.50
2022-12-03T16:23:30.226Z,97972.94
2022-12-03T16:25:33.299Z,97979.03
2022-12-03T16:27:38.264Z,97975.59
2022-12-03T16:29:41.216Z,97972.94
2022-12-03T16:31:45.776Z,97967.91
2022-12-03T16:33:49.037Z,97969.75
2022-12-03T16:35:52.007Z,97965.22
2022-12-03T16:37:55.024Z,97977.13
2022-12-03T16:39:58.087Z,97984.94
2022-12-03T16:42:01.100Z,97978.09
2022-12-03T16:44:05.602Z,97979.16
2022-12-03T16:46:21.182Z,97978.09
2022-12-03T16:48:24.286Z,97974.63
2022-12-03T16:50:29.788Z,97975.44
2022-12-03T16:52:33.346Z,97975.44
2022-12-03T16:54:36.323Z,97972.94
2022-12-03T16:56:39.436Z,97979.91
2022-12-03T16:58:42.701Z,97982.94
2022-12-03T17:00:47.074Z,97982.06
2022-12-03T17:02:50.164Z,97986.28
2022-12-03T17:04:53.203Z,97978.63
2022-12-03T17:06:56.254Z,97982.00
2022-12-03T17:08:59.270Z,97976.66
2022-12-03T17:11:02.401Z,97969.59
2022-12-03T17:13:10.158Z,97977.28
2022-12-03T17:15:13.561Z,97969.28
2022-12-03T17:17:17.896Z,97973.34
2022-12-03T17:19:20.965Z,97981.06
2022-12-03T17:21:24.062Z,97965.75
2022-12-03T17:23:27.090Z,97963.34
2022-12-03T17:25:30.219Z,97964.13
2022-12-03T17:27:33.247Z,97955.56
2022-12-03T17:29:36.236Z,97957.22
2022-12-03T17:31:42.179Z,97958.91
2022-12-03T17:33:47.104Z,97950.25
2022-12-03T17:35:50.102Z,97946.06
2022-12-03T17:37:53.112Z,97931.56
2022-12-03T17:39:56.357Z,97931.28
2022-12-03T17:41:59.924Z,97929.28
2022-12-03T17:44:09.634Z,97934.56
2022-12-03T17:46:13.816Z,97932.97
2022-12-03T17:48:16.875Z,97932.97
2022-12-03T17:50:21.489Z,97933.06
2022-12-03T17:52:24.634Z,97941.78
2022-12-03T17:54:43.204Z,97934.19
2022-12-03T17:56:50.547Z,97942.81
2022-12-03T17:58:53.695Z,97938.97
2022-12-03T18:01:02.039Z,97945.16
2022-12-03T18:03:05.862Z,97934.91
2022-12-03T18:05:09.754Z,97951.53
2022-12-03T18:07:14.206Z,97940.31
2022-12-03T18:09:17.985Z,97945.53
2022-12-03T18:11:21.268Z,97956.88
2022-12-03T18:13:24.216Z,97942.19
2022-12-03T18:15:27.236Z,97942.13
2022-12-03T18:17:30.309Z,97936.28
2022-12-03T18:19:33.483Z,97937.81
2022-12-03T18:21:36.788Z,97933.38
2022-12-03T18:23:41.361Z,97925.72
2022-12-03T18:25:44.445Z,97937.41
2022-12-03T18:27:47.717Z,97934.66
2022-12-03T18:29:50.825Z,97938.84
2022-12-03T18:31:53.936Z,97935.28
2022-12-03T18:33:56.938Z,97937.53
2022-12-03T18:35:59.962Z,97922.88
2022-12-03T18:38:02.949Z,97931.22
2022-12-03T18:40:13.185Z,97924.84
2022-12-03T18:42:18.136Z,97928.25
2022-12-03T18:44:21.504Z,97929.41
2022-12-03T18:46:51.771Z,97927.03
2022-12-03T18:48:48.872Z,97925.44
2022-12-03T18:50:51.940Z,97920.69
2022-12-03T18:52:54.942Z,97914.59
2022-12-03T18:54:57.955Z,97916.41
2022-12-03T18:57:02.258Z,97920.63
2022-12-03T18:59:06.547Z,97919.63
2022-12-03T19:01:15.447Z,97922.00
2022-12-03T19:03:18.531Z,97914.47
2022-12-03T19:05:21.647Z,97927.09
2022-12-03T19:07:24.656Z,97923.50
2022-12-03T19:09:27.784Z,97931.09
2022-12-03T19:11:30.847Z,97936.13
2022-12-03T19:13:35.240Z,97931.84
2022-12-03T19:15:39.022Z,97930.00
2022-12-03T19:17:42.181Z,97926.78
2022-12-03T19:19:46.372Z,97925.38
2022-12-03T19:21:49.570Z,97923.25
2022-12-03T19:24:22.654Z,97927.34
2022-12-03T19:26:16.046Z,97939.34
2022-12-03T19:28:19.191Z,97924.78
2022-12-03T19:30:23.669Z,97923.97
2022-12-03T19:32:26.710Z,97920.63
2022-12-03T19:34:29.869Z,97914.53
2022-12-03T19:36:33.400Z,97911.22
2022-12-03T19:38:36.470Z,97921.63
2022-12-03T19:40:39.571Z,97913.97
2022-12-03T19:42:42.647Z,97925.84
2022-12-03T19:44:45.791Z,97912.03
2022-12-03T19:46:51.663Z,97910.94
2022-12-03T19:48:54.910Z,97915.28
2022-12-03T19:51:19.909Z,97917.97
2022-12-03T19:53:22.685Z,97914.59
2022-12-03T19:55:25.756Z,97919.56
2022-12-03T19:57:29.350Z,97922.69
2022-12-03T19:59:32.335Z,97918.22
2022-12-03T20:01:36.662Z,97915.22
2022-12-03T20:03:41.593Z,97911.00
2022-12-03T20:05:44.691Z,97910.88
2022-12-03T20:07:47.797Z,97909.31
2022-12-03T20:09:52.356Z,97915.34
2022-12-03T20:11:55.634Z,97917.06
2022-12-03T20:14:00.332Z,97918.69
2022-12-03T20:16:04.451Z,97913.53
2022-12-03T20:18:07.596Z,97910.44
2022-12-03T20:20:12.858Z,97913.03
2022-12-03T20:22:15.944Z,97908.06
2022-12-03T20:24:19.524Z,97915.84
2022-12-03T20:26:23.214Z,97911.59
2022-12-03T20:28:26.618Z,97916.69
2022-12-03T20:30:29.678Z,97918.31
2022-12-03T20:32:32.913Z,97921.56
2022-12-03T20:34:36.342Z,97921.44
2022-12-03T20:36:40.776Z,97907.69
2022-12-03T20:38:44.332Z,97906.63
2022-12-03T20:40:47.353Z,97913.19
2022-12-03T20:42:50.415Z,97906.88
2022-12-03T20:44:54.105Z,97905.19
2022-12-03T20:46:58.251Z,97897.28
2022-12-03T20:49:01.472Z,97897.06
2022-12-03T20:51:05.907Z,97895.38
2022-12-03T20:53:24.323Z,97899.50
2022-12-03T20:55:28.110Z,97892.47
2022-12-03T20:57:31.147Z,97890.59
2022-12-03T20:59:34.143Z,97891.50
2022-12-03T21:01:38.432Z,97886.09
2022-12-03T21:03:41.731Z,97888.78
2022-12-03T21:05:44.962Z,97887.72
2022-12-03T21:07:48.858Z,97892.69
2022-12-03T21:09:53.771Z,97891.09
2022-12-03T21:11:57.125Z,97882.31
2022-12-03T21:14:00.738Z,97887.38
2022-12-03T21:16:06.977Z,97891.09
2022-12-03T21:18:11.401Z,97886.69
2022-12-03T21:20:20.596Z,97880.66
2022-12-03T21:22:24.174Z,97878.22
2022-12-03T21:24:27.343Z,97870.63
2022-12-03T21:26:32.687Z,97869.75
2022-12-03T21:28:36.156Z,97873.06
2022-12-03T21:30:40.242Z,97879.09
2022-12-03T21:32:43.508Z,97877.22
2022-12-03T21:34:46.918Z,97874.44
2022-12-03T21:36:50.078Z,97869.19
2022-12-03T21:38:53.678Z,97883.50
2022-12-03T21:40:57.387Z,97888.13
2022-12-03T21:43:01.865Z,97884.06
2022-12-03T21:45:05.949Z,97882.72
2022-12-03T21:47:14.360Z,97872.59
2022-12-03T21:49:19.312Z,97864.88
2022-12-03T21:51:22.690Z,97880.28
2022-12-03T21:53:25.749Z,97868.59
2022-12-03T21:55:28.696Z,97860.19
2022-12-03T21:57:31.809Z,97856.03
2022-12-03T21:59:36.409Z,97853.53
2022-12-03T22:01:42.877Z,97859.63
2022-12-03T22:03:50.088Z,97869.81
2022-12-03T22:05:53.203Z,97858.81
2022-12-03T22:07:56.234Z,97852.69
2022-12-03T22:09:59.317Z,97852.53
2022-12-03T22:12:03.523Z,97851.44
2022-12-03T22:14:08.235Z,97846.91
2022-12-03T22:16:14.505Z,97850.88
2022-12-03T22:18:17.585Z,97853.94
2022-12-03T22:20:20.731Z,97864.84
2022-12-03T22:22:23.785Z,97867.34
2022-12-03T22:24:26.872Z,97870.28
2022-12-03T22:26:29.904Z,97869.19
2022-12-03T22:28:33.544Z,97858.69
2022-12-03T22:30:36.654Z,97864.25
2022-12-03T22:32:41.089Z,97869.25
2022-12-03T22:34:44.186Z,97870.88
2022-12-03T22:36:47.529Z,97866.41
2022-12-03T22:38:50.823Z,97861.44
2022-12-03T22:40:53.983Z,97858.13
2022-12-03T22:42:56.932Z,97847.94
2022-12-03T22:44:59.913Z,97857.50
2022-12-03T22:47:02.913Z,97849.78
2022-12-03T22:49:07.849Z,97850.88
2022-12-03T22:51:13.068Z,97843.06
2022-12-03T22:53:16.233Z,97838.91
2022-12-03T22:55:19.293Z,97833.88
2022-12-03T22:57:22.631Z,97833.31
2022-12-03T22:59:25.611Z,97840.28
2022-12-03T23:01:30.282Z,97831.09
2022-12-03T23:03:33.426Z,97836.38
2022-12-03T23:05:39.509Z,97839.81
2022-12-03T23:07:42.524Z,97830.47
2022-12-03T23:09:45.532Z,97820.97
2022-12-03T23:11:48.637Z,97813.53
2022-12-03T23:13:51.896Z,97805.88
2022-12-03T23:15:55.052Z,97811.16
2022-12-03T23:17:58.571Z,97814.59
2022-12-03T23:20:01.658Z,97810.59
2022-12-03T23:22:06.588Z,97810.34
2022-12-03T23:24:09.772Z,97800.78
2022-12-03T23:26:13.700Z,97797.25
2022-12-03T23:28:16.761Z,97809.44
2022-12-03T23:30:19.883Z,97803.66
2022-12-03T23:32:22.811Z,97804.34
2022-12-03T23:34:25.783Z,97800.72
2022-12-03T23:36:32.510Z,97802.25
2022-12-03T23:38:36.912Z,97818.25
2022-12-03T23:40:44.741Z,97822.31
2022-12-03T23:42:50.932Z,97826.38
2022-12-03T23:44:53.863Z,97813.75
2022-12-03T23:46:56.869Z,97806.16
2022-12-03T23:49:00.164Z,97796.00
2022-12-03T23:51:06.550Z,97794.31
2022-12-03T23:53:09.616Z,97796.06
2022-12-03T23:55:13.971Z,97802.78
2022-12-03T23:57:18.315Z,97797.63
2022-12-03T23:59:21.378Z,97793.28
